Terminal Aerodrome Forecast
Issued by NWS

Home | Current Version | Previous Version | Graphics & Text | Print | Product List | Glossary On
Versions: 1 2 3 4 5 6 7 8 9 10 11 12 13
000
FTUS43 KFGF 041700
TAFBJI
TAF
KBJI 041721Z 0418/0518 VRB05KT P6SM FEW250
      TEMPO 0418/0422 SCT060
     FM051600 14008KT P6SM SKC=

USA.gov is the U.S. government's official web portal to all federal, state and local government web resources and services.